KB4RFE Weather Reports


time (UTC)temp
F
wind
direction
speed
knots
gust
knots
rain 1hr
in
rain 24hr
in
rain mn
in
humidity
%
barometer
mb
20260507040207 74 238 2.6 7.8 0.00 0.00 0.00 87 1017.0
20260507035703 74 251 1.7 7.0 0.00 0.01 0.01 87 1016.8
20260507035159 74 228 3.5 7.0 0.00 0.01 0.01 87 1016.8
20260507034656 74 249 0.9 8.7 0.00 0.01 0.01 87 1016.7
20260507034153 74 239 2.6 6.1 0.00 0.01 0.01 87 1016.6
20260507033652 74 262 2.6 7.8 0.00 0.01 0.01 87 1016.5
20260507033148 74 284 1.7 7.8 0.00 0.01 0.01 87 1016.9
20260507032646 74 247 3.5 12.2 0.00 0.01 0.01 87 1016.5
20260507032142 74 237 1.7 7.8 0.00 0.01 0.01 88 1016.5
20260507031639 74 232 5.2 6.1 0.00 0.01 0.01 88 1016.3
20260507031135 74 240 5.2 8.7 0.00 0.01 0.01 89 1016.5
20260507030632 74 226 2.6 4.3 0.00 0.01 0.01 89 1016.6
20260507030130 74 253 2.6 7.8 0.00 0.01 0.01 89 1016.8
20260507025627 73 239 3.5 7.8 0.00 0.01 0.01 89 1016.9
20260507025124 73 227 4.3 5.2 0.00 0.01 0.01 89 1017.1
20260507024622 74 238 1.7 3.5 0.00 0.01 0.01 89 1016.8
20260507024119 74 227 4.3 7.0 0.00 0.01 0.01 88 1016.9
20260507023614 73 238 4.3 9.6 0.00 0.01 0.01 89 1016.2
20260507023112 73 239 1.7 4.3 0.00 0.01 0.01 89 1016.4
20260507022609 73 266 3.5 7.8 0.00 0.01 0.01 88 1016.4
20260507022104 73 215 2.6 7.8 0.00 0.01 0.01 88 1016.7
20260507021601 73 288 0.9 9.6 0.00 0.01 0.01 89 1016.5
20260507021056 73 244 3.5 12.2 0.00 0.01 0.01 89 1016.8
20260507020555 73 258 3.5 5.2 0.00 0.01 0.01 89 1017.0
20260507020051 73 267 1.7 2.6 0.00 0.01 0.01 89 1017.2
20260507015550 73 227 1.7 7.0 0.00 0.01 0.01 89 1016.9
20260507015047 73 263 2.6 6.1 0.00 0.01 0.01 89 1017.0
20260507014543 73 233 2.6 3.5 0.00 0.01 0.01 89 1017.4
20260507014039 73 308 1.7 3.5 0.00 0.01 0.01 89 1017.4
20260507013536 73 221 0.9 4.3 0.00 0.01 0.01 89 1017.2
20260507013033 73 240 4.3 6.1 0.00 0.01 0.01 89 1017.1
20260507012530 73 216 1.7 4.3 0.00 0.01 0.01 89 1017.0
20260507012026 73 217 4.3 7.0 0.00 0.01 0.01 89 1017.3
20260507011524 73 254 5.2 9.6 0.00 0.01 0.01 89 1017.3
20260507011020 73 253 3.5 6.1 0.00 0.01 0.01 89 1017.3
20260507010514 73 239 3.5 10.4 0.00 0.01 0.01 89 1017.2
20260507010011 73 257 2.6 4.3 0.00 0.01 0.01 89 1017.5
20260507005509 73 235 4.3 8.7 0.00 0.01 0.01 89 1017.3
20260507005005 73 213 4.3 7.8 0.00 0.01 0.01 89 1017.1
20260507004502 73 282 1.7 7.0 0.00 0.01 0.01 88 1017.2
20260507003959 73 241 3.5 4.3 0.00 0.01 0.01 88 1017.2
20260507003454 73 233 7.0 7.0 0.00 0.01 0.01 88 1017.1
20260507002949 73 248 2.6 7.0 0.00 0.01 0.01 88 1017.2
20260507002447 73 314 1.7 3.5 0.00 0.01 0.01 88 1017.1
20260507001943 73 238 3.5 7.0 0.00 0.01 0.01 87 1017.0
20260507001439 73 224 5.2 8.7 0.00 0.01 0.01 87 1017.1
20260507000937 73 221 4.3 8.7 0.00 0.01 0.01 87 1017.3
20260507000435 73 218 8.7 9.6 0.00 0.01 0.01 87 1017.1
20260506235928 73 224 1.7 5.2 0.00 0.01 0.01 87 1017.4
20260506235426 73 217 4.3 9.6 0.00 0.01 0.01 86 1017.2
20260506234921 74 231 6.1 10.4 0.00 0.01 0.01 86 1017.3
20260506234420 74 236 2.6 5.2 0.00 0.01 0.01 86 1017.2
20260506233917 74 240 5.2 7.8 0.00 0.01 0.01 85 1017.1
20260506233413 74 245 3.5 9.6 0.00 0.01 0.01 84 1017.2
20260506232910 74 218 7.0 9.6 0.00 0.01 0.01 84 1017.0
20260506232406 74 241 4.3 8.7 0.00 0.01 0.01 83 1017.3
20260506231902 74 241 2.6 5.2 0.00 0.01 0.01 83 1017.4
20260506231400 74 220 4.3 7.0 0.00 0.01 0.01 82 1017.4
20260506230857 74 239 3.5 6.1 0.00 0.01 0.01 82 1017.5
20260506230353 74 251 3.5 6.1 0.00 0.01 0.01 82 1017.4
20260506225849 74 229 3.5 7.0 0.00 0.01 0.01 82 1017.2
20260506225347 74 256 3.5 8.7 0.00 0.01 0.01 81 1017.3
20260506224839 75 211 3.5 5.2 0.00 0.01 0.01 82 1017.4
20260506224336 75 293 2.6 7.0 0.00 0.01 0.01 82 1017.4
20260506223832 75 256 3.5 7.8 0.00 0.01 0.01 82 1017.3
20260506223327 75 241 3.5 11.3 0.00 0.01 0.01 81 1017.1
20260506222825 75 263 1.7 10.4 0.00 0.01 0.01 80 1017.1
20260506222320 75 219 1.7 5.2 0.00 0.01 0.01 80 1017.1
20260506221818 76 250 4.3 8.7 0.00 0.01 0.01 79 1017.2
20260506221315 75 233 6.1 10.4 0.00 0.01 0.01 79 1017.1
20260506220814 76 205 9.6 11.3 0.00 0.01 0.01 79 1017.1
20260506220313 76 230 7.8 12.2 0.00 0.01 0.01 78 1016.9
20260506215810 76 203 7.8 13.0 0.00 0.01 0.01 79 1017.0
20260506215306 76 214 7.8 13.0 0.00 0.01 0.01 79 1017.3
20260506214802 76 217 7.8 9.6 0.00 0.01 0.01 78 1017.2
20260506214259 76 216 7.0 9.6 0.00 0.01 0.01 79 1017.3
20260506213758 76 221 6.1 7.8 0.00 0.01 0.01 79 1017.4
20260506213254 77 230 8.7 9.6 0.00 0.01 0.01 76 1017.4
20260506212752 77 220 8.7 13.0 0.00 0.01 0.01 77 1017.3
20260506212247 77 245 4.3 8.7 0.00 0.01 0.01 77 1017.3
20260506211742 77 213 6.1 11.3 0.00 0.01 0.01 77 1017.4
20260506211239 77 246 6.1 10.4 0.00 0.01 0.01 76 1017.2
20260506210736 77 241 4.3 13.9 0.00 0.01 0.01 76 1017.3
20260506210233 77 249 5.2 10.4 0.00 0.01 0.01 75 1017.4
20260506205731 77 240 12.2 13.9 0.00 0.01 0.01 75 1017.5
20260506205226 77 225 7.0 10.4 0.00 0.01 0.01 75 1017.6
20260506204723 77 241 7.0 13.0 0.00 0.01 0.01 75 1017.5
20260506204220 77 244 5.2 13.0 0.00 0.01 0.01 76 1017.4
20260506203718 78 273 5.2 14.8 0.00 0.01 0.01 75 1017.4
20260506203215 78 261 5.2 12.2 0.00 0.01 0.01 73 1017.5
20260506202713 78 225 10.4 14.8 0.00 0.01 0.01 71 1017.5
20260506202209 78 233 6.1 14.8 0.00 0.01 0.01 73 1017.7
20260506201706 78 223 10.4 12.2 0.00 0.01 0.01 74 1017.7
20260506201202 78 219 9.6 12.2 0.00 0.01 0.01 72 1017.6
20260506200659 78 290 3.5 8.7 0.00 0.01 0.01 72 1017.7
20260506200156 78 216 5.2 10.4 0.00 0.01 0.01 74 1017.7
20260506195653 78 227 5.2 12.2 0.00 0.01 0.01 75 1018.0
20260506195149 78 215 7.8 11.3 0.00 0.01 0.01 74 1017.9
20260506194647 78 220 6.1 12.2 0.00 0.01 0.01 73 1017.9
20260506194142 78 212 9.6 13.0 0.00 0.01 0.01 73 1017.8
20260506193641 78 232 8.7 13.0 0.00 0.01 0.01 74 1018.0
20260506193137 78 217 8.7 13.9 0.00 0.01 0.01 73 1017.9
20260506192634 78 233 7.0 13.0 0.00 0.01 0.01 73 1018.0
20260506192130 78 226 8.7 12.2 0.00 0.01 0.01 73 1018.2
20260506191627 78 234 6.1 12.2 0.00 0.01 0.01 74 1018.1
20260506191123 78 221 9.6 10.4 0.00 0.01 0.01 72 1018.3
20260506190621 79 219 7.8 11.3 0.00 0.01 0.01 72 1018.4
20260506190118 79 219 7.8 13.0 0.00 0.01 0.01 71 1018.4
20260506185615 79 276 2.6 10.4 0.00 0.01 0.01 72 1018.5
20260506185110 78 215 9.6 9.6 0.00 0.01 0.01 73 1018.9
20260506184609 79 225 7.0 9.6 0.00 0.01 0.01 72 1018.9
20260506184106 78 260 6.1 14.8 0.00 0.01 0.01 74 1019.2
20260506183602 78 234 4.3 8.7 0.00 0.01 0.01 75 1019.0
20260506183058 78 232 6.1 10.4 0.00 0.01 0.01 75 1019.1
20260506182555 78 229 5.2 10.4 0.00 0.01 0.01 73 1019.1
20260506182052 78 214 2.6 11.3 0.00 0.01 0.01 75 1019.0
20260506181551 78 219 9.6 13.0 0.00 0.01 0.01 74 1019.0
20260506181047 79 221 10.4 10.4 0.00 0.01 0.01 74 1019.0
20260506180543 78 239 4.3 10.4 0.00 0.01 0.01 75 1018.9
20260506180040 79 231 7.8 10.4 0.00 0.01 0.01 73 1019.2
20260506175537 78 208 6.1 10.4 0.00 0.01 0.01 75 1019.3
20260506175033 77 218 5.2 13.9 0.00 0.01 0.01 75 1019.5
20260506174532 77 238 5.2 10.4 0.00 0.01 0.01 76 1019.7
20260506174027 77 238 4.3 10.4 0.00 0.01 0.01 76 1019.7
20260506173526 77 218 7.0 10.4 0.00 0.01 0.01 75 1019.6
20260506173022 77 231 7.8 12.2 0.00 0.01 0.01 74 1019.5
20260506172520 78 222 7.8 9.6 0.00 0.01 0.01 74 1019.5
20260506172016 78 227 7.0 8.7 0.00 0.01 0.01 72 1019.6
20260506171513 78 258 4.3 13.0 0.00 0.01 0.01 73 1019.7
20260506171010 79 222 9.6 12.2 0.00 0.01 0.01 73 1019.6
20260506170508 79 223 5.2 8.7 0.00 0.01 0.01 72 1019.6
20260506170006 78 243 7.8 13.0 0.00 0.01 0.01 71 1019.6
20260506165504 78 235 7.8 10.4 0.00 0.01 0.01 72 1019.4
20260506164959 78 265 2.6 11.3 0.00 0.01 0.01 72 1019.7
20260506164456 78 252 3.5 11.3 0.00 0.01 0.01 71 1019.7
20260506163954 78 235 8.7 10.4 0.00 0.01 0.01 71 1019.6
20260506163449 78 237 5.2 9.6 0.00 0.01 0.01 71 1019.7
20260506162944 78 235 7.8 13.0 0.00 0.01 0.01 72 1019.7
20260506162442 77 245 4.3 11.3 0.00 0.01 0.01 73 1019.9
20260506161939 77 212 6.1 13.0 0.00 0.01 0.01 75 1019.9
20260506161437 77 244 4.3 8.7 0.00 0.01 0.01 74 1020.0
20260506160934 77 228 9.6 11.3 0.00 0.01 0.01 74 1020.2
20260506160432 78 227 6.1 8.7 0.00 0.01 0.01 73 1020.0
20260506155929 78 225 7.8 9.6 0.00 0.01 0.01 71 1020.0
20260506155427 77 220 4.3 9.6 0.00 0.01 0.01 72 1020.0
20260506153548 77 241 7.0 10.4 0.00 0.01 0.01 70 1020.1
20260506153045 78 206 7.8 13.0 0.00 0.01 0.01 71 1020.1
20260506152542 77 233 7.8 12.2 0.00 0.01 0.01 72 1020.2
20260506152040 78 242 6.1 10.4 0.00 0.01 0.01 72 1020.2
20260506151538 77 215 10.4 11.3 0.00 0.01 0.01 73 1020.2
20260506151035 77 236 7.0 9.6 0.00 0.01 0.01 73 1020.1
20260506150531 77 267 2.6 8.7 0.00 0.01 0.01 74 1020.1
20260506150028 77 200 9.6 12.2 0.00 0.01 0.01 72 1020.1
20260506145525 77 235 5.2 10.4 0.00 0.01 0.01 73 1019.9
20260506145023 77 208 7.8 9.6 0.00 0.01 0.01 71 1019.7
20260506144519 77 224 5.2 7.8 0.00 0.01 0.01 71 1019.7
20260506144017 77 248 7.8 8.7 0.00 0.01 0.01 72 1019.7
20260506143514 77 229 7.0 8.7 0.00 0.01 0.01 72 1019.7
20260506143013 76 250 3.5 7.8 0.00 0.01 0.01 73 1019.8
20260506142510 76 233 3.5 8.7 0.00 0.01 0.01 74 1019.8
20260506142008 76 201 7.8 10.4 0.00 0.01 0.01 74 1019.6
20260506141505 76 212 6.1 8.7 0.00 0.01 0.01 74 1020.0
20260506141003 76 245 3.5 9.6 0.00 0.01 0.01 74 1019.9
20260506140500 76 254 4.3 8.7 0.00 0.01 0.01 74 1019.8
20260506135957 76 225 7.8 13.0 0.00 0.01 0.01 74 1019.5
20260506135454 76 244 3.5 8.7 0.00 0.01 0.01 76 1019.5
20260506134950 75 238 7.8 9.6 0.00 0.01 0.01 74 1019.5
20260506134446 76 220 4.3 10.4 0.00 0.01 0.01 73 1019.6
20260506133943 76 231 6.1 11.3 0.00 0.01 0.01 73 1019.6
20260506133440 75 305 1.7 9.6 0.00 0.01 0.01 75 1019.6
20260506132937 75 241 4.3 7.8 0.00 0.01 0.01 74 1019.5
20260506132434 75 211 7.8 9.6 0.00 0.01 0.01 76 1019.5
20260506131932 74 246 4.3 7.8 0.00 0.01 0.01 77 1019.3
20260506131428 74 237 4.3 9.6 0.00 0.01 0.01 77 1019.3
20260506130925 74 236 5.2 13.0 0.00 0.01 0.01 78 1019.4
20260506130421 73 212 5.2 10.4 0.00 0.01 0.01 79 1019.5
20260506125920 73 240 4.3 11.3 0.00 0.01 0.01 79 1019.2
20260506125417 73 236 3.5 7.8 0.00 0.01 0.01 79 1019.5
20260506124916 73 231 5.2 9.6 0.00 0.01 0.01 80 1019.2
20260506124413 73 235 5.2 6.1 0.00 0.01 0.01 79 1019.1
20260506123910 73 260 4.3 6.1 0.00 0.01 0.01 79 1019.3
20260506123408 72 225 7.0 7.0 0.00 0.01 0.01 80 1019.4
20260506122905 72 236 4.3 7.8 0.00 0.01 0.01 80 1019.3
20260506122402 72 263 3.5 5.2 0.00 0.01 0.01 81 1019.3
20260506121900 71 302 1.7 7.0 0.00 0.01 0.01 81 1019.3
20260506121357 71 209 4.3 5.2 0.00 0.01 0.01 82 1019.3
20260506120854 71 234 4.3 5.2 0.00 0.01 0.01 84 1019.1
20260506120352 70 225 4.3 7.0 0.00 0.01 0.01 85 1019.1
20260506115849 70 271 1.7 7.8 0.02 0.01 0.01 86 1019.1
20260506115347 69 236 4.3 5.2 0.02 0.01 0.01 88 1019.2
20260506114845 68 254 1.7 3.5 0.00 0.00 0.00 91 1019.1
20260506114342 68 259 1.7 2.6 0.00 0.00 0.00 94 1018.8
20260506113841 67 244 2.6 2.6 0.00 0.00 0.00 96 1018.8
20260506113338 66 242 0.0 1.7 0.00 0.00 0.00 97 1018.8
20260506112834 65 247 1.7 1.7 0.00 0.00 0.00 97 1018.7
20260506112332 64 331 1.7 1.7 0.00 0.00 0.00 96 1018.7
20260506111829 64 343 1.7 1.7 0.00 0.00 0.00 96 1018.9
20260506111327 63 344 1.7 1.7 0.00 0.00 0.00 96 1018.8
20260506110824 63 340 1.7 1.7 0.00 0.00 0.00 96 1018.7
20260506110321 63 336 1.7 1.7 0.02 0.00 0.00 95 1018.7
20260506105818 63 336 1.7 1.7 0.02 0.00 0.00 95 1018.8
20260506105314 62 326 1.7 1.7 0.00 0.00 0.00 95 1018.9
20260506104812 63 340 1.7 1.7 0.00 0.00 0.00 95 1018.7
20260506104310 63 357 1.7 1.7 0.00 0.00 0.00 95 1018.7
20260506103807 63 344 1.7 1.7 0.00 0.00 0.00 94 1018.7
20260506103305 63 344 2.6 2.6 0.00 0.00 0.00 94 1018.8
20260506102802 63 353 1.7 2.6 0.00 0.00 0.00 94 1018.6
20260506102300 63 355 1.7 1.7 0.00 0.00 0.00 94 1018.5
20260506101757 63 343 1.7 2.6 0.00 0.00 0.00 94 1018.5
20260506101253 63 339 1.7 2.6 0.00 0.00 0.00 94 1018.5
20260506100751 63 346 1.7 2.6 0.00 0.00 0.00 94 1018.6
20260506100249 63 335 1.7 1.7 0.00 0.00 0.00 93 1018.4
20260506095747 63 348 1.7 2.6 0.00 0.00 0.00 93 1018.4
20260506095244 63 351 2.6 2.6 0.00 0.00 0.00 93 1018.6
20260506094740 63 355 1.7 2.6 0.00 0.00 0.00 93 1018.6
20260506094239 64 346 1.7 1.7 0.00 0.00 0.00 92 1018.6
20260506093737 64 353 1.7 2.6 0.00 0.00 0.00 92 1018.4
20260506093234 64 351 1.7 2.6 0.00 0.00 0.00 92 1018.3
20260506092731 64 351 1.7 2.6 0.00 0.00 0.00 91 1018.5
20260506092229 64 335 0.9 1.7 0.00 0.00 0.00 91 1018.3
20260506091726 64 334 1.7 2.6 0.00 0.00 0.00 91 1018.5
20260506091224 65 355 1.7 2.6 0.00 0.00 0.00 90 1018.5
20260506090721 65 358 1.7 1.7 0.00 0.00 0.00 90 1018.6
20260506090218 65 6 1.7 2.6 0.00 0.00 0.00 90 1018.5
20260506085715 65 348 1.7 1.7 0.00 0.00 0.00 89 1018.5
20260506085211 66 346 1.7 1.7 0.00 0.00 0.00 89 1018.6
20260506084708 66 349 2.6 2.6 0.00 0.00 0.00 89 1018.7
20260506084204 66 342 1.7 1.7 0.00 0.00 0.00 88 1018.6
20260506083701 66 336 0.9 1.7 0.00 0.00 0.00 88 1018.6
20260506083159 66 304 0.0 1.7 0.00 0.00 0.00 87 1018.5
20260506082656 67 320 0.9 1.7 0.00 0.00 0.00 87 1018.5
20260506082156 67 328 1.7 1.7 0.00 0.00 0.00 87 1018.5
20260506081655 67 338 1.7 2.6 0.00 0.00 0.00 86 1018.5
20260506081152 67 301 1.7 1.7 0.00 0.00 0.00 86 1018.6
20260506080650 68 291 1.7 1.7 0.00 0.00 0.00 86 1018.3
20260506080146 68 306 0.0 2.6 0.00 0.00 0.00 86 1018.3
20260506073130 68 254 0.0 2.6 0.00 0.00 0.00 84 1018.2
20260506072627 69 285 1.7 3.5 0.00 0.00 0.00 83 1018.1
20260506072125 69 265 1.7 5.2 0.00 0.00 0.00 83 1018.4
20260506071622 69 237 3.5 5.2 0.00 0.00 0.00 83 1018.3
20260506071120 69 264 1.7 4.3 0.00 0.00 0.00 83 1018.4
20260506070616 69 269 1.7 7.0 0.00 0.00 0.00 83 1018.3
20260506070114 69 214 3.5 5.2 0.00 0.00 0.00 83 1018.4
20260506062050 69 285 1.7 5.2 0.00 0.00 0.00 82 1018.7
20260506061546 69 242 3.5 3.5 0.00 0.00 0.00 81 1018.5
20260506061044 69 240 3.5 3.5 0.00 0.00 0.00 81 1018.6
20260506060543 69 269 1.7 3.5 0.00 0.00 0.00 80 1018.4
20260506051011 69 220 3.5 4.3 0.00 0.00 0.00 77 1019.3
20260506050509 69 236 3.5 4.3 0.00 0.00 0.00 77 1019.5
20260506044959 70 236 6.1 7.0 0.00 0.00 0.00 76 1019.4
20260506044458 70 271 1.7 7.0 0.00 0.00 0.00 76 1019.7
20260506043954 70 273 1.7 5.2 0.00 0.00 0.00 76 1019.4
20260506043451 70 251 1.7 3.5 0.00 0.00 0.00 76 1019.5
20260506042949 70 258 3.5 3.5 0.00 0.00 0.00 75 1019.4
20260506042448 70 257 2.6 3.5 0.00 0.00 0.00 75 1019.4
20260506041946 70 261 1.7 4.3 0.00 0.00 0.00 75 1019.5
20260506041444 70 259 2.6 5.2 0.00 0.00 0.00 75 1019.4
20260506040941 70 267 1.7 3.5 0.00 0.00 0.00 76 1019.4